Flight Track Log - Related Links

Times and Time Zones

All times are in EDT time to prevent confusion due to time zone crossing. See the SKW6345 flight status page for this flight to view local times or setup timezone preferences in your user account.

Time Position Orientation Groundspeed Altitude Reporting Facility
EDT Latitude Longitude Course Direction KTS MPH feet Rate Location/Type
Sat 06:59:14 PM 29.9619 -95.3458 300° West 165 190 900  Level Houston Center
Sat 07:00:34 PM 29.9978 -95.4164 300° West 284 327 3,900 1,699 Climbing Houston Center
Sat 07:01:07 PM 30.0308 -95.4100 North 258 297 4,100 358 Climbing Houston Center
Sat 07:01:41 PM 30.0681 -95.3814 34° Northeast 258 297 4,300 590 Climbing Houston Center
Sat 07:02:08 PM 30.0933 -95.3708 20° North 258 297 4,700 689 Climbing Houston Center
Sat 07:02:42 PM 30.1408 -95.3508 20° North 262 302 5,000 290 Climbing Houston Center
Sat 07:03:10 PM 30.1628 -95.3439 15° North 263 303 5,000 98 Level Houston Center
Sat 07:03:43 PM 30.2142 -95.3250 18° North 269 310 5,100  Climbing Houston Center
Sat 07:04:11 PM 30.2322 -95.3133 29° Northeast 276 318 5,000 1,180 Descending Houston Center
Sat 07:04:44 PM 30.2744 -95.2742 39° Northeast 274 315 6,300 2,032 Climbing Houston Center
Sat 07:05:13 PM 30.2939 -95.2611 30° Northeast 278 320 7,100 2,600 Climbing Houston Center
Sat 07:06:14 PM 30.3642 -95.1875 42° Northeast 286 329 10,200 2,634 Climbing Houston Center
Sat 07:07:16 PM 30.4303 -95.1281 38° Northeast 318 366 12,500 2,244 Climbing Houston Center
Sat 07:08:17 PM 30.4808 -95.2100 306° West 319 367 14,800 1,902 Climbing Houston Center
Sat 07:09:19 PM 30.4989 -95.3181 281° West 337 388 16,400 1,756 Climbing Houston Center
Sat 07:10:20 PM 30.5125 -95.4325 278° West 353 406 18,400 1,951 Climbing Houston Center
Sat 07:11:22 PM 30.5236 -95.5322 277° West 349 402 20,400 1,805 Climbing Houston Center
Sat 07:12:23 PM 30.5400 -95.6339 281° West 326 375 22,100 1,220 Climbing Houston Center
Sat 07:13:25 PM 30.6233 -95.6964 327° Northwest 371 427 22,900 878 Climbing Houston Center
Sat 07:14:26 PM 30.7308 -95.7567 334° Northwest 383 441 23,900 1,024 Climbing Houston Center
Sat 07:15:28 PM 30.8353 -95.8117 336° Northwest 404 465 25,000 1,024 Climbing Houston Center
Sat 07:16:29 PM 30.9414 -95.8689 335° Northwest 414 476 26,000 1,131 Climbing Houston Center
Sat 07:17:30 PM 31.0533 -95.9281 336° Northwest 431 496 27,300 1,415 Climbing Houston Center
Sat 07:18:32 PM 31.1647 -95.9831 337° Northwest 432 497 28,900 1,561 Climbing Houston Center
Sat 07:19:33 PM 31.3008 -96.0353 342° North 427 491 30,500 1,122 Climbing Houston Center
Sat 07:20:35 PM 31.4153 -96.0803 341° North 431 496 31,200 605 Climbing Houston Center
Sat 07:21:42 PM 31.5386 -96.1264 342° North 437 503 31,800 567 Climbing Fort Worth Center
Sat 07:22:42 PM 31.6581 -96.1736 341° North 446 513 32,400 800 Climbing Fort Worth Center
Sat 07:23:42 PM 31.7778 -96.2208 341° North 446 513 33,400 1,250 Climbing Fort Worth Center
Sat 07:24:42 PM 31.9056 -96.2706 342° North 440 506 34,900 1,450 Climbing Fort Worth Center
Sat 07:25:42 PM 32.0186 -96.3133 342° North 429 494 36,300 1,200 Climbing Fort Worth Center
Sat 07:26:42 PM 32.1233 -96.3611 339° North 409 471 37,300 750 Climbing Fort Worth Center
Sat 07:27:42 PM 32.1992 -96.4339 321° Northwest 397 457 37,800 350 Climbing Fort Worth Center
Sat 07:28:42 PM 32.2292 -96.5464 288° West 361 415 38,000 100 Climbing Fort Worth Center
Sat 07:29:42 PM 32.2236 -96.6669 267° West 349 402 38,000  Level Fort Worth Center
Sat 07:30:42 PM 32.2222 -96.7847 269° West 360 414 38,000  Level Fort Worth Center
Sat 07:31:42 PM 32.2186 -96.9050 268° West 365 420 38,000  Level Fort Worth Center
Sat 07:32:42 PM 32.2147 -97.0328 268° West 365 420 38,000  Level Fort Worth Center
Sat 07:33:42 PM 32.2089 -97.1506 267° West 365 420 38,000  Level Fort Worth Center
Sat 07:34:42 PM 32.2069 -97.2661 269° West 365 420 38,000  Level Fort Worth Center
Sat 07:35:42 PM 32.2028 -97.3789 268° West 360 414 38,000  Level Fort Worth Center
Sat 07:36:42 PM 32.1986 -97.4969 268° West 360 414 38,000  Level Fort Worth Center
Sat 07:37:42 PM 32.1944 -97.6122 268° West 360 414 38,000  Level Fort Worth Center
Sat 07:38:42 PM 32.1900 -97.7253 267° West 360 414 38,000  Level Fort Worth Center
Sat 07:39:42 PM 32.1875 -97.8331 268° West 360 414 38,000  Level Fort Worth Center
Sat 07:40:42 PM 32.1808 -97.9483 266° West 360 414 38,000  Level Fort Worth Center
Sat 07:41:42 PM 32.1803 -98.0639 270° West 360 414 38,000  Level Fort Worth Center
Sat 07:42:42 PM 32.1756 -98.1792 267° West 360 414 38,000  Level Fort Worth Center
Sat 07:43:42 PM 32.1683 -98.2969 266° West 360 414 38,000  Level Fort Worth Center
Sat 07:44:42 PM 32.1656 -98.4122 268° West 360 414 38,000  Level Fort Worth Center
Sat 07:45:42 PM 32.1581 -98.5397 266° West 353 406 38,000  Level Fort Worth Center
Sat 07:46:42 PM 32.1550 -98.6525 268° West 353 406 38,000  Level Fort Worth Center
Sat 07:47:42 PM 32.1494 -98.7703 267° West 353 406 38,000  Level Fort Worth Center
Sat 07:48:42 PM 32.1442 -98.8906 267° West 358 412 38,000  Level Fort Worth Center
Sat 07:49:42 PM 32.1406 -99.0058 268° West 363 418 38,000  Level Fort Worth Center
Sat 07:50:42 PM 32.1328 -99.1233 266° West 363 418 38,000  Level Fort Worth Center
Sat 07:51:42 PM 32.1269 -99.2433 267° West 363 418 38,000  Level Fort Worth Center
Sat 07:52:42 PM 32.1231 -99.3611 268° West 363 418 38,000  Level Fort Worth Center
Sat 07:53:42 PM 32.1147 -99.4811 265° West 363 418 38,000  Level Fort Worth Center
Sat 07:54:42 PM 32.1086 -99.5986 267° West 363 418 38,000  Level Fort Worth Center
Sat 07:55:42 PM 32.1047 -99.7064 268° West 363 418 38,000  Level Fort Worth Center
Sat 07:56:42 PM 32.0981 -99.8289 266° West 363 418 38,000  Level Fort Worth Center
Sat 07:57:42 PM 32.0917 -99.9489 266° West 363 418 38,000  Level Fort Worth Center
Sat 07:58:42 PM 32.0828 -100.0711 265° West 368 423 38,000  Level Fort Worth Center
Sat 07:59:42 PM 32.0781 -100.1936 267° West 368 423 38,000  Level Fort Worth Center
Sat 08:00:42 PM 32.0711 -100.3161 266° West 368 423 38,000  Level Fort Worth Center
Sat 08:01:42 PM 32.0642 -100.4383 266° West 373 429 38,000  Level Fort Worth Center
Sat 08:02:42 PM 32.0569 -100.5608 266° West 373 429 38,000  Level Fort Worth Center
Sat 08:03:42 PM 32.0494 -100.6856 266° West 383 441 38,000  Level Fort Worth Center
Sat 08:04:42 PM 32.0442 -100.8103 267° West 383 441 38,000  Level Fort Worth Center
Sat 08:05:42 PM 32.0344 -100.9347 265° West 383 441 38,000  Level Fort Worth Center
Sat 08:06:42 PM 32.0331 -101.0572 269° West 378 435 38,000  Level Fort Worth Center
Sat 08:07:42 PM 32.0253 -101.1819 266° West 384 442 38,000  Level Fort Worth Center
Sat 08:08:42 PM 32.0172 -101.3042 266° West 384 442 38,000  Level Fort Worth Center
Sat 08:09:42 PM 32.0092 -101.4311 266° West 384 442 38,000  Level Fort Worth Center
Sat 08:10:42 PM 31.9989 -101.5581 265° West 384 442 38,000  Level Fort Worth Center
Sat 08:11:42 PM 31.9906 -101.6800 265° West 384 442 38,000  Level Fort Worth Center
Sat 08:12:42 PM 31.9842 -101.8072 267° West 384 442 38,000  Level Fort Worth Center
Sat 08:13:42 PM 31.9756 -101.9317 265° West 384 442 38,000  Level Fort Worth Center
Sat 08:14:42 PM 31.9667 -102.0561 265° West 384 442 38,000  Level Fort Worth Center
Sat 08:15:42 PM 31.9578 -102.1853 265° West 384 442 38,000  Level Fort Worth Center
Sat 08:16:42 PM 31.9489 -102.3097 265° West 384 442 38,000  Level Fort Worth Center
Sat 08:17:42 PM 31.9397 -102.4342 265° West 384 442 38,000  Level Fort Worth Center
Sat 08:18:42 PM 31.9283 -102.5606 264° West 384 442 38,000  Level Fort Worth Center
Sat 08:19:42 PM 31.9189 -102.6850 265° West 384 442 38,000  Level Fort Worth Center
Sat 08:20:42 PM 31.9094 -102.8092 265° West 384 442 38,000  Level Fort Worth Center
Sat 08:22:33 PM 31.8892 -103.0439 264° West 379 436 38,000  Level Albuquerque Center
Sat 08:23:34 PM 31.8797 -103.1667 265° West 375 432 38,000  Level Albuquerque Center
Sat 08:24:36 PM 31.8736 -103.2881 267° West 373 429 38,000  Level Albuquerque Center
Sat 08:25:37 PM 31.8792 -103.4097 273° West 372 428 38,000  Level Albuquerque Center
Sat 08:26:38 PM 31.8833 -103.5311 272° West 372 428 38,000  Level Albuquerque Center
Sat 08:27:40 PM 31.8889 -103.6522 273° West 371 427 38,000  Level Albuquerque Center
Sat 08:28:41 PM 31.8922 -103.7744 272° West 372 428 38,000  Level Albuquerque Center
Sat 08:29:42 PM 31.8989 -103.8981 274° West 377 434 38,000  Level Albuquerque Center
Sat 08:30:44 PM 31.9033 -104.0194 273° West 375 432 38,000  Level Albuquerque Center
Sat 08:31:45 PM 31.9056 -104.1408 271° West 371 427 38,000 -49 Level Albuquerque Center
Sat 08:32:46 PM 31.9100 -104.2606 273° West 368 423 37,900  Descending Albuquerque Center
Sat 08:33:47 PM 31.9133 -104.4033 272° West 367 422 38,000 49 Climbing Albuquerque Center
Sat 08:34:49 PM 31.9158 -104.5239 271° West 367 422 38,000  Level Albuquerque Center
Sat 08:35:50 PM 31.9192 -104.6442 272° West 368 423 38,000  Level Albuquerque Center
Sat 08:36:51 PM 31.9211 -104.7603 271° West 364 419 38,000 -49 Level Albuquerque Center
Sat 08:37:52 PM 31.9242 -104.8825 272° West 371 427 37,900 -49 Descending Albuquerque Center
Sat 08:38:54 PM 31.9272 -105.0036 272° West 373 429 37,900 49 Level Albuquerque Center
Sat 08:39:55 PM 31.9303 -105.1244 272° West 372 428 38,000 49 Climbing Albuquerque Center
Sat 08:40:56 PM 31.9331 -105.2456 272° West 372 428 38,000  Level Albuquerque Center
Sat 08:41:57 PM 31.9358 -105.3939 271° West 379 436 38,000  Level Albuquerque Center
Sat 08:42:58 PM 31.9381 -105.5161 271° West 377 434 38,000  Level Albuquerque Center
Sat 08:44:00 PM 31.9406 -105.6394 271° West 380 437 38,000  Level Albuquerque Center
Sat 08:45:01 PM 31.9436 -105.7622 272° West 378 435 38,000  Level Albuquerque Center
Sat 08:46:02 PM 31.9456 -105.8864 271° West 381 438 38,000  Level Albuquerque Center
Sat 08:47:03 PM 31.9492 -106.0058 272° West 382 440 38,000  Level Albuquerque Center
Sat 08:48:04 PM 31.9506 -106.1300 271° West 380 437 38,000  Level Albuquerque Center
Sat 08:49:06 PM 31.9533 -106.2547 272° West 381 438 38,000  Level Albuquerque Center
Sat 08:50:07 PM 31.9686 -106.4050 277° West 386 444 38,000  Level Albuquerque Center
Sat 08:51:08 PM 31.9836 -106.5294 278° West 383 441 38,000  Level Albuquerque Center
Sat 08:52:09 PM 31.9983 -106.6539 278° West 384 442 38,000  Level Albuquerque Center
Sat 08:53:10 PM 32.0128 -106.7786 278° West 383 441 38,000  Level Albuquerque Center
Sat 08:54:12 PM 32.0278 -106.9047 278° West 387 445 38,000  Level Albuquerque Center
Sat 08:55:13 PM 32.0408 -107.0328 277° West 390 449 38,000  Level Albuquerque Center
Sat 08:56:14 PM 32.0550 -107.1594 278° West 389 448 38,000  Level Albuquerque Center
Sat 08:57:15 PM 32.0683 -107.2875 277° West 390 449 38,000  Level Albuquerque Center
Sat 08:58:16 PM 32.0822 -107.4150 277° West 391 450 38,000  Level Albuquerque Center
Sat 08:59:17 PM 32.0956 -107.5414 277° West 388 447 38,000  Level Albuquerque Center
Sat 09:00:19 PM 32.1089 -107.6686 277° West 390 449 38,000  Level Albuquerque Center
Sat 09:01:20 PM 32.1228 -107.7956 277° West 390 449 38,000  Level Albuquerque Center
Sat 09:02:21 PM 32.1353 -107.9219 277° West 389 448 38,000  Level Albuquerque Center
Sat 09:03:22 PM 32.1517 -108.0742 277° West 389 448 38,000  Level Albuquerque Center
Sat 09:04:23 PM 32.1636 -108.1903 277° West 390 449 38,000  Level Albuquerque Center
Sat 09:05:24 PM 32.1775 -108.3289 277° West 392 451 38,000  Level Albuquerque Center
Sat 09:06:25 PM 32.1794 -108.4572 271° West 392 451 38,000  Level Albuquerque Center
Sat 09:07:26 PM 32.1789 -108.5725 270° West 391 450 38,000  Level Albuquerque Center
Sat 09:08:27 PM 32.1781 -108.6992 270° West 388 447 38,000  Level Albuquerque Center
Sat 09:09:28 PM 32.1772 -108.8528 270° West 391 450 38,000  Level Albuquerque Center
Sat 09:10:30 PM 32.1758 -108.9806 269° West 392 451 38,000  Level Albuquerque Center
Sat 09:11:31 PM 32.1756 -109.1094 270° West 394 453 38,000  Level Albuquerque Center
Sat 09:12:32 PM 32.1736 -109.2369 269° West 393 452 38,000 -934 Level Albuquerque Center
Sat 09:13:33 PM 32.1719 -109.3669 269° West 396 456 36,100 -2,508 Descending Albuquerque Center
Sat 09:14:34 PM 32.1706 -109.5017 269° West 405 466 32,900 -3,148 Descending Albuquerque Center
Sat 09:15:35 PM 32.1700 -109.6375 270° West 414 476 29,700 -3,148 Descending Albuquerque Center
Sat 09:16:36 PM 32.1667 -109.7697 268° West 410 472 26,500 -3,148 Descending Albuquerque Center
Sat 09:17:37 PM 32.1647 -109.9017 269° West 406 467 23,300 -3,443 Descending Albuquerque Center
Sat 09:18:38 PM 32.1653 -110.0600 270° West 405 466 19,500 -3,443 Descending Albuquerque Center
Sat 09:19:39 PM 32.1631 -110.1872 269° West 397 457 16,300 -3,029 Descending Albuquerque Center
Sat 09:20:23 PM 32.1592 -110.2769 267° West 387 445 14,200 -2,262 Descending Albuquerque Center
Sat 09:20:40 PM 32.1614 -110.3114 274° West 387 445 14,000 -1,100 Descending Albuquerque Center
Sat 09:21:23 PM 32.1397 -110.3833 250° West 343 395 13,100 -1,180 Descending Albuquerque Center
Sat 09:21:41 PM 32.1264 -110.4067 236° Southwest 337 388 12,800 -1,770 Descending Albuquerque Center
Sat 09:22:24 PM 32.0869 -110.4736 235° Southwest 312 359 11,300 -1,574 Descending Albuquerque Center
Sat 09:22:42 PM 32.0803 -110.4889 243° Southwest 311 358 11,200 -295 Descending Albuquerque Center
Sat 09:23:25 PM 32.0425 -110.5511 234° Southwest 287 330 11,000 -197 Descending Albuquerque Center
Sat 09:23:43 PM 32.0350 -110.5658 239° Southwest 299 344 11,000 -400 Level Albuquerque Center
Sat 09:24:25 PM 31.9975 -110.6264 234° Southwest 278 320 10,600 -689 Descending Albuquerque Center
Sat 09:24:44 PM 31.9858 -110.6506 240° Southwest 286 329 10,300 -984 Descending Albuquerque Center
Sat 09:25:26 PM 31.9506 -110.6819 217° Southwest 235 270 9,600 -984 Descending Albuquerque Center
Sat 09:25:45 PM 31.9369 -110.6964 222° Southwest 236 272 9,300 -1,000 Descending Albuquerque Center
Sat 09:26:32 PM 31.9283 -110.7433 258° West 215 247 8,500 -1,056 Descending Albuquerque Center
Sat 09:27:33 PM 31.9739 -110.7786 327° Northwest 200 230 7,400 -1,500 Descending Albuquerque Center
Sat 09:28:28 PM 32.0114 -110.8164 319° Northwest 188 216 5,600 -1,565 Descending Albuquerque Center
Sat 09:29:28 PM 32.0433 -110.8581 312° West 173 199 4,400 -992 Descending Albuquerque Center
Sat 09:30:29 PM 32.0706 -110.8883 317° Northwest 138 159 3,600 -793 Descending Albuquerque Center
Sat 09:31:29 PM 32.0981 -110.9186 317° Northwest 134 154 2,800 -800 Descending Albuquerque Center
Sat 09:33:00 PM 32.1000 -110.9333 313° West  Level FlightAware Approximate
Sat 09:40:00 PM 32.1161 -110.9410 313° West  Level Estimated

Login

Don't have an account? Register now (free) for customized features, flight alerts, and more!